Terminal Aerodrome Forecast
Issued by NWS Central Illinois

Home | Current Version | Previous Version | Text Only | Print | Product List | Glossary On
Versions: 1 2 3 4 5 6 7 8 9 10 11 12 13 14 15 16 17 18 19 20 21 22
000
FTUS43 KILX 272100 AAB
TAFSPI
TAF AMD
KSPI 272115Z 2721/2818 04006KT P6SM VCTS SCT035CB OVC100
      TEMPO 2721/2722 2SM TSRA BR BKN025CB
     FM280100 02004KT P6SM BKN250
     FM280600 06004KT 5SM BR VCSH SCT030 BKN150
     FM281400 09005KT P6SM SCT040 BKN150=

USA.gov is the U.S. government's official web portal to all federal, state and local government web resources and services.